Time;durP1;ratioP1;P1;durP2;ratioP2;P2;SDS_P1;SDS_P2;PMS_P1;PMS_P2;Temp;Humidity;BMP_temperature;BMP_pressure;BME280_temperature;BME280_humidity;BME280_pressure;Samples;Min_cycle;Max_cycle;Signal;HPM_P1;HPM_P2
2023/06/21 00:02:20;;;;;;;14.97;10.00;;;26.60;78.40;;;;;;4993579;28;20209;-72
2023/06/21 00:04:47;;;;;;;11.07;9.00;;;26.50;78.70;;;;;;4994640;28;20220;-72
2023/06/21 00:07:22;;;;;;;12.40;8.37;;;26.50;78.40;;;;;;4996779;28;20200;-72
2023/06/21 00:09:55;;;;;;;12.30;9.10;;;26.40;78.50;;;;;;4995409;28;20273;-72
2023/06/21 00:12:23;;;;;;;10.90;9.47;;;26.40;78.60;;;;;;5006955;28;20569;-72
2023/06/21 00:14:50;;;;;;;11.00;9.90;;;26.40;78.40;;;;;;5006704;28;20225;-72
2023/06/21 00:17:16;;;;;;;9.77;8.97;;;26.40;79.40;;;;;;5011156;28;20719;-72
2023/06/21 00:19:43;;;;;;;10.27;9.27;;;26.30;78.60;;;;;;5001292;28;20200;-72
2023/06/21 00:22:10;;;;;;;10.23;9.17;;;26.30;78.60;;;;;;4998591;28;20303;-72
2023/06/21 00:24:38;;;;;;;10.13;9.13;;;26.20;78.60;;;;;;5009719;28;20191;-72
2023/06/21 00:27:06;;;;;;;12.10;8.63;;;26.20;78.80;;;;;;5010219;28;20210;-72
2023/06/21 00:29:38;;;;;;;9.70;8.87;;;26.20;78.90;;;;;;4993755;28;20572;-72
2023/06/21 00:32:06;;;;;;;10.60;9.53;;;26.20;78.80;;;;;;5006559;28;20647;-72
2023/06/21 00:34:34;;;;;;;10.37;9.30;;;26.20;79.00;;;;;;5001129;28;20238;-72
2023/06/21 00:37:02;;;;;;;12.03;9.40;;;26.20;79.70;;;;;;5001024;28;20279;-72
2023/06/21 00:39:29;;;;;;;10.87;9.83;;;26.20;78.70;;;;;;4992816;28;21317;-72
2023/06/21 00:41:58;;;;;;;11.13;9.80;;;26.20;78.80;;;;;;4999834;28;20218;-72
2023/06/21 00:44:26;;;;;;;10.10;9.23;;;26.10;79.10;;;;;;4997001;28;20211;-72
2023/06/21 00:46:52;;;;;;;11.87;8.63;;;26.10;79.10;;;;;;4992088;28;20587;-73
2023/06/21 00:49:19;;;;;;;9.70;8.80;;;26.10;79.10;;;;;;4993729;28;20214;-72
2023/06/21 00:51:47;;;;;;;9.50;8.50;;;26.10;78.90;;;;;;4995704;28;20628;-72
2023/06/21 00:54:17;;;;;;;10.20;8.80;;;26.10;78.90;;;;;;4994301;28;20212;-72
2023/06/21 00:56:46;;;;;;;10.20;8.33;;;26.00;79.00;;;;;;4994989;28;20207;-72
2023/06/21 00:59:20;;;;;;;9.00;8.10;;;26.00;78.80;;;;;;4999458;28;20209;-72
2023/06/21 01:01:47;;;;;;;8.53;7.73;;;26.00;78.90;;;;;;5008495;28;20211;-72
2023/06/21 01:04:21;;;;;;;8.67;7.73;;;25.90;78.70;;;;;;5004746;28;20655;-72
2023/06/21 01:06:55;;;;;;;8.53;7.73;;;25.90;78.60;;;;;;5001002;28;20192;-72
2023/06/21 01:09:37;;;;;;;9.07;8.23;;;25.90;78.70;;;;;;4993548;28;20234;-72
2023/06/21 01:12:15;;;;;;;10.17;8.53;;;25.90;78.90;;;;;;4998609;28;20219;-72
2023/06/21 01:15:05;;;;;;;9.83;8.93;;;25.80;78.90;;;;;;4994621;28;20558;-73
2023/06/21 01:17:37;;;;;;;9.70;8.70;;;25.80;79.30;;;;;;5012048;28;20210;-73
2023/06/21 01:20:10;;;;;;;10.13;9.13;;;25.80;78.90;;;;;;5010076;28;20282;-72
2023/06/21 01:22:58;;;;;;;9.70;8.80;;;25.80;78.90;;;;;;5010711;28;20439;-72
2023/06/21 01:25:33;;;;;;;10.50;9.50;;;25.80;78.90;;;;;;4999122;28;20284;-71
2023/06/21 01:28:22;;;;;;;10.77;9.67;;;25.70;78.80;;;;;;5000088;28;20195;-73
2023/06/21 01:30:57;;;;;;;11.13;9.63;;;25.60;78.70;;;;;;4996579;28;20396;-73
2023/06/21 01:33:25;;;;;;;11.10;10.00;;;25.50;78.60;;;;;;4994178;28;20229;-73
2023/06/21 01:35:54;;;;;;;10.70;9.47;;;25.50;78.60;;;;;;5003527;28;20583;-71
2023/06/21 01:38:21;;;;;;;11.07;10.07;;;25.50;79.10;;;;;;5006879;28;20230;-72
2023/06/21 01:40:50;;;;;;;10.73;9.07;;;25.50;79.20;;;;;;4993742;28;20199;-71
2023/06/21 01:43:17;;;;;;;10.83;9.77;;;25.50;79.50;;;;;;4991768;28;20531;-72
2023/06/21 01:45:44;;;;;;;10.57;9.47;;;25.50;79.80;;;;;;4998538;28;20227;-73
2023/06/21 01:48:13;;;;;;;9.80;9.00;;;25.50;79.80;;;;;;4991945;28;20203;-72
2023/06/21 01:50:41;;;;;;;9.63;8.50;;;25.50;79.90;;;;;;5003327;28;20721;-73
2023/06/21 01:53:09;;;;;;;10.47;9.60;;;25.50;79.90;;;;;;4991175;28;20204;-73
2023/06/21 01:55:37;;;;;;;10.27;9.30;;;25.40;79.60;;;;;;4991442;28;20223;-73
2023/06/21 01:58:06;;;;;;;10.10;9.17;;;25.40;79.40;;;;;;5000242;28;20230;-72
2023/06/21 02:00:33;;;;;;;10.30;9.37;;;25.40;79.40;;;;;;5009582;28;20200;-73
2023/06/21 02:03:06;;;;;;;10.07;9.10;;;25.40;79.20;;;;;;4992486;28;20240;-72
2023/06/21 02:05:35;;;;;;;11.03;9.13;;;25.30;79.50;;;;;;5005273;28;20557;-72
2023/06/21 02:08:04;;;;;;;13.63;10.70;;;25.30;79.60;;;;;;4999746;28;20667;-71
2023/06/21 02:10:31;;;;;;;10.30;9.07;;;25.20;79.40;;;;;;5013706;28;20294;-72
2023/06/21 02:13:02;;;;;;;11.83;9.43;;;25.10;79.80;;;;;;5013678;28;20553;-71
2023/06/21 02:15:29;;;;;;;9.73;8.83;;;25.00;80.10;;;;;;4996709;28;20253;-73
2023/06/21 02:17:55;;;;;;;12.60;9.53;;;25.00;80.30;;;;;;5006444;28;20202;-72
2023/06/21 02:20:22;;;;;;;12.63;9.33;;;25.00;80.20;;;;;;4997023;28;20232;-72
2023/06/21 02:22:51;;;;;;;10.80;9.67;;;25.10;80.40;;;;;;5013650;28;20575;-73
2023/06/21 02:25:18;;;;;;;9.97;9.07;;;25.10;80.60;;;;;;5013350;28;20203;-73
2023/06/21 02:27:45;;;;;;;10.77;9.10;;;25.10;80.50;;;;;;5013913;28;20262;-73
2023/06/21 02:30:12;;;;;;;10.40;9.30;;;25.10;80.40;;;;;;5008818;28;20215;-73
2023/06/21 02:32:39;;;;;;;9.73;8.73;;;25.10;80.10;;;;;;5001120;28;20207;-72
2023/06/21 02:35:09;;;;;;;10.13;9.17;;;25.20;80.10;;;;;;5004126;28;20199;-72
2023/06/21 02:37:36;;;;;;;10.30;9.20;;;25.20;80.20;;;;;;4995897;28;20633;-72
2023/06/21 02:40:10;;;;;;;10.30;9.30;;;25.20;80.40;;;;;;4994251;28;20282;-72
2023/06/21 02:42:37;;;;;;;11.13;10.13;;;25.20;80.50;;;;;;5009292;28;20246;-72
2023/06/21 02:45:04;;;;;;;10.50;9.50;;;25.20;80.40;;;;;;4996393;28;20237;-73
2023/06/21 02:47:37;;;;;;;11.37;9.53;;;25.20;80.30;;;;;;5006386;28;20199;-72
2023/06/21 02:50:05;;;;;;;11.10;9.87;;;25.10;80.20;;;;;;5006471;28;20209;-72
2023/06/21 02:52:32;;;;;;;10.80;9.80;;;25.10;80.00;;;;;;5002066;28;20227;-73
2023/06/21 02:55:03;;;;;;;10.80;9.40;;;25.10;80.10;;;;;;4999146;28;20671;-71
2023/06/21 02:57:34;;;;;;;8.77;7.97;;;25.00;80.20;;;;;;4994402;28;20195;-73
2023/06/21 03:00:04;;;;;;;9.40;8.53;;;24.90;80.40;;;;;;5000687;28;20195;-73
2023/06/21 03:02:33;;;;;;;10.77;9.13;;;24.90;80.50;;;;;;4997594;28;20219;-72
2023/06/21 03:05:00;;;;;;;10.37;9.37;;;25.00;80.70;;;;;;5001123;28;20209;-73
2023/06/21 03:07:28;;;;;;;10.00;9.00;;;25.00;80.80;;;;;;5002901;28;20290;-70
2023/06/21 03:09:55;;;;;;;9.33;8.43;;;25.00;80.90;;;;;;5005737;28;20349;-72
2023/06/21 03:12:23;;;;;;;13.30;9.70;;;25.10;81.00;;;;;;5014870;28;20268;-72
2023/06/21 03:14:51;;;;;;;10.60;9.30;;;25.10;81.10;;;;;;5007490;28;20208;-73
2023/06/21 03:17:18;;;;;;;11.30;10.10;;;25.00;81.10;;;;;;4994653;28;20247;-71
2023/06/21 03:19:47;;;;;;;11.60;9.83;;;25.00;81.50;;;;;;5008552;28;20211;-71
2023/06/21 03:22:14;;;;;;;9.87;8.90;;;24.90;82.30;;;;;;5013085;28;20231;-71
2023/06/21 03:24:41;;;;;;;9.50;8.37;;;24.80;82.20;;;;;;5007837;28;20218;-71
2023/06/21 03:27:08;;;;;;;10.80;7.93;;;24.80;81.80;;;;;;4993734;28;20232;-73
2023/06/21 03:29:34;;;;;;;9.33;8.43;;;24.80;81.10;;;;;;4994264;28;20317;-74
2023/06/21 03:32:03;;;;;;;8.67;7.77;;;24.90;81.20;;;;;;5008300;28;20223;-73
2023/06/21 03:34:30;;;;;;;10.63;8.47;;;24.90;81.10;;;;;;5012100;28;20234;-73
2023/06/21 03:36:57;;;;;;;9.77;8.53;;;25.00;81.30;;;;;;5012906;28;20227;-72
2023/06/21 03:39:23;;;;;;;10.40;8.33;;;24.90;80.70;;;;;;5012580;28;21394;-72
2023/06/21 03:41:50;;;;;;;8.33;7.30;;;24.90;81.10;;;;;;5008982;28;20207;-72
2023/06/21 03:44:17;;;;;;;9.17;8.17;;;24.90;80.90;;;;;;4993418;28;20238;-71
2023/06/21 03:46:50;;;;;;;9.23;7.83;;;24.90;81.00;;;;;;4996768;28;20217;-72
2023/06/21 03:49:21;;;;;;;9.00;8.03;;;24.90;81.40;;;;;;4996193;28;20213;-72
2023/06/21 03:51:48;;;;;;;10.73;8.20;;;24.80;81.30;;;;;;5011866;28;20208;-72
2023/06/21 03:54:15;;;;;;;8.20;7.50;;;24.80;81.50;;;;;;4985438;28;20198;-72
2023/06/21 03:56:42;;;;;;;8.47;7.57;;;24.80;82.50;;;;;;5009595;28;20561;-72
2023/06/21 03:59:09;;;;;;;8.47;7.57;;;24.80;81.60;;;;;;5004504;28;20207;-72
2023/06/21 04:01:38;;;;;;;8.17;7.33;;;24.80;82.00;;;;;;4994242;28;20684;-72
2023/06/21 04:04:07;;;;;;;10.50;7.83;;;24.80;82.00;;;;;;5009667;28;20596;-72
2023/06/21 04:06:37;;;;;;;10.87;8.00;;;24.80;82.30;;;;;;5005576;28;20214;-72
2023/06/21 04:09:05;;;;;;;9.23;7.97;;;24.80;82.20;;;;;;4999981;28;20200;-72
2023/06/21 04:11:40;;;;;;;9.03;8.13;;;24.70;82.70;;;;;;5004864;28;20615;-71
2023/06/21 04:14:07;;;;;;;7.40;6.73;;;24.70;82.70;;;;;;4992673;28;20223;-73
2023/06/21 04:16:35;;;;;;;8.27;7.07;;;24.80;82.50;;;;;;5006541;28;20230;-73
2023/06/21 04:19:03;;;;;;;8.17;7.37;;;24.80;82.50;;;;;;4993865;28;20685;-72
2023/06/21 04:21:30;;;;;;;7.90;7.27;;;24.90;82.20;;;;;;4994425;28;20202;-73
2023/06/21 04:23:58;;;;;;;8.20;7.10;;;24.90;81.90;;;;;;4998790;28;20212;-73
2023/06/21 04:26:27;;;;;;;7.63;6.77;;;24.80;82.20;;;;;;4994083;28;20726;-73
2023/06/21 04:28:54;;;;;;;8.00;6.67;;;24.80;82.60;;;;;;5001292;28;20215;-73
2023/06/21 04:31:24;;;;;;;8.27;6.70;;;24.80;82.40;;;;;;4999055;28;20305;-73
2023/06/21 04:33:53;;;;;;;11.20;6.03;;;24.70;82.40;;;;;;4995302;28;20265;-73
2023/06/21 04:36:20;;;;;;;7.63;5.90;;;24.60;82.30;;;;;;5003889;28;20226;-73
2023/06/21 04:38:48;;;;;;;9.37;6.53;;;24.50;82.50;;;;;;5005093;28;20199;-73
2023/06/21 04:41:16;;;;;;;10.77;6.87;;;24.50;82.60;;;;;;4993958;28;20222;-73
2023/06/21 04:43:43;;;;;;;7.03;6.33;;;24.50;82.70;;;;;;5006244;28;20232;-74
2023/06/21 04:46:12;;;;;;;7.30;6.50;;;24.50;82.90;;;;;;4989602;28;20840;-73
2023/06/21 04:48:40;;;;;;;7.43;6.63;;;24.60;83.00;;;;;;5006081;28;20218;-73
2023/06/21 04:51:07;;;;;;;7.63;6.87;;;24.50;82.80;;;;;;5011709;28;20199;-73
2023/06/21 04:53:33;;;;;;;7.17;5.77;;;24.60;83.00;;;;;;4999818;28;20206;-74
2023/06/21 04:56:00;;;;;;;8.57;6.97;;;24.50;83.70;;;;;;5005148;28;20234;-73
2023/06/21 04:58:35;;;;;;;7.53;6.40;;;24.50;83.60;;;;;;4993848;28;20560;-74
2023/06/21 05:01:02;;;;;;;8.10;6.50;;;24.50;83.40;;;;;;5006383;28;20234;-72
2023/06/21 05:03:32;;;;;;;8.07;7.23;;;24.60;83.80;;;;;;4994315;28;20557;-73
2023/06/21 05:05:59;;;;;;;6.97;6.27;;;24.60;83.70;;;;;;4994056;28;20290;-73
2023/06/21 05:08:26;;;;;;;7.33;6.63;;;24.60;83.60;;;;;;5000763;28;20659;-74
2023/06/21 05:10:53;;;;;;;7.50;6.70;;;24.70;83.30;;;;;;5007025;28;20199;-74
2023/06/21 05:13:20;;;;;;;8.70;6.60;;;24.70;83.50;;;;;;4998500;28;20227;-73
2023/06/21 05:15:48;;;;;;;7.23;6.53;;;24.80;84.20;;;;;;4990888;28;20246;-73
2023/06/21 05:18:15;;;;;;;10.27;6.90;;;24.80;83.90;;;;;;4991993;28;20227;-74
2023/06/21 05:20:42;;;;;;;7.43;6.37;;;24.80;83.60;;;;;;5008660;28;20289;-72
2023/06/21 05:23:08;;;;;;;8.80;6.40;;;24.80;83.30;;;;;;5010929;28;20725;-74
2023/06/21 05:25:35;;;;;;;10.13;6.43;;;24.90;83.60;;;;;;4993381;28;20206;-72
2023/06/21 05:28:02;;;;;;;7.30;6.50;;;24.90;83.60;;;;;;4992078;28;20203;-72
2023/06/21 05:30:29;;;;;;;9.70;6.23;;;24.90;83.10;;;;;;5007265;28;20230;-73
2023/06/21 05:32:57;;;;;;;5.87;5.37;;;24.90;83.00;;;;;;5007771;28;20199;-73
2023/06/21 05:35:24;;;;;;;8.23;6.17;;;25.00;83.10;;;;;;5006100;28;20227;-73
2023/06/21 05:37:53;;;;;;;8.63;5.80;;;25.10;82.90;;;;;;4980730;28;20713;-73
2023/06/21 05:40:20;;;;;;;5.70;5.13;;;25.10;82.60;;;;;;5006503;28;20230;-73
2023/06/21 05:42:47;;;;;;;7.10;5.40;;;25.10;83.30;;;;;;5010407;28;20191;-73
2023/06/21 05:45:14;;;;;;;9.87;6.30;;;25.20;83.40;;;;;;5014247;28;20207;-72
2023/06/21 05:47:41;;;;;;;8.10;5.30;;;25.30;82.70;;;;;;5005336;28;20222;-72
2023/06/21 05:50:11;;;;;;;8.70;5.20;;;25.30;82.80;;;;;;4995866;28;20214;-72
2023/06/21 05:52:37;;;;;;;8.57;6.03;;;25.40;83.60;;;;;;5010337;28;20410;-73
2023/06/21 05:55:08;;;;;;;7.23;6.03;;;25.40;82.30;;;;;;5013270;28;20213;-72
2023/06/21 05:57:35;;;;;;;7.33;5.93;;;25.40;83.00;;;;;;5012861;28;20241;-72
2023/06/21 06:00:04;;;;;;;6.93;6.10;;;25.40;83.20;;;;;;5018383;28;20209;-72
2023/06/21 06:02:31;;;;;;;8.40;6.70;;;25.30;83.20;;;;;;5018261;28;20218;-72
2023/06/21 06:04:58;;;;;;;7.10;5.80;;;25.30;83.40;;;;;;5010484;28;20223;-72
2023/06/21 06:07:26;;;;;;;8.13;5.93;;;25.30;83.30;;;;;;5014503;28;20210;-73
2023/06/21 06:09:56;;;;;;;6.80;5.70;;;25.30;83.70;;;;;;5012639;28;20214;-73
2023/06/21 06:12:23;;;;;;;7.30;6.00;;;25.30;83.60;;;;;;4994433;28;20564;-71
2023/06/21 06:14:51;;;;;;;5.83;5.30;;;25.30;83.40;;;;;;5010218;28;20203;-71
2023/06/21 06:17:20;;;;;;;7.63;5.87;;;25.40;83.30;;;;;;5013061;28;20331;-72
2023/06/21 06:19:48;;;;;;;8.70;5.83;;;25.40;83.00;;;;;;5014446;28;20239;-72
2023/06/21 06:22:15;;;;;;;6.97;5.40;;;25.40;83.10;;;;;;5013938;28;20219;-72
2023/06/21 06:24:45;;;;;;;6.03;5.40;;;25.50;82.20;;;;;;4995537;28;20290;-72
2023/06/21 06:27:12;;;;;;;7.10;5.60;;;25.50;82.40;;;;;;4993688;28;20208;-71
2023/06/21 06:29:40;;;;;;;6.97;5.20;;;25.60;82.20;;;;;;5005120;28;20233;-72
2023/06/21 06:32:07;;;;;;;7.60;5.70;;;25.70;81.80;;;;;;4993567;28;20210;-72
2023/06/21 06:34:34;;;;;;;5.63;4.90;;;25.80;82.60;;;;;;4976410;28;20214;-72
2023/06/21 06:37:01;;;;;;;7.07;5.33;;;25.80;82.30;;;;;;4995162;28;20231;-71
2023/06/21 06:39:28;;;;;;;5.80;5.17;;;25.90;81.40;;;;;;5000081;28;20305;-72
2023/06/21 06:41:56;;;;;;;6.60;4.77;;;25.80;80.60;;;;;;5013265;28;20235;-72
2023/06/21 06:44:23;;;;;;;8.17;5.40;;;25.90;80.70;;;;;;5012587;28;20213;-72
2023/06/21 06:46:50;;;;;;;5.37;4.87;;;26.00;80.60;;;;;;5012712;28;20211;-72
2023/06/21 06:49:16;;;;;;;5.63;5.03;;;26.00;79.60;;;;;;5013191;28;20203;-72
2023/06/21 06:51:45;;;;;;;6.97;5.10;;;26.10;79.90;;;;;;5012978;28;20208;-72
2023/06/21 06:54:12;;;;;;;6.07;5.00;;;26.10;79.30;;;;;;5010896;28;20226;-72
2023/06/21 06:56:39;;;;;;;5.37;4.50;;;26.10;79.10;;;;;;5011925;28;20237;-71
2023/06/21 06:59:09;;;;;;;5.70;5.00;;;26.10;79.10;;;;;;5012622;28;20200;-72
2023/06/21 07:01:36;;;;;;;6.47;4.50;;;26.20;78.60;;;;;;5012450;28;20568;-71
2023/06/21 07:04:03;;;;;;;5.53;4.37;;;26.10;77.90;;;;;;5011849;28;20680;-71
2023/06/21 07:06:33;;;;;;;5.77;4.43;;;26.20;78.30;;;;;;5012423;28;20567;-73
2023/06/21 07:09:02;;;;;;;9.17;5.23;;;26.20;78.30;;;;;;5012018;28;20198;-71
2023/06/21 07:11:29;;;;;;;7.40;4.73;;;26.30;77.90;;;;;;5012125;28;20219;-72
2023/06/21 07:13:56;;;;;;;6.30;4.80;;;26.30;78.10;;;;;;5011666;28;20231;-71
2023/06/21 07:16:24;;;;;;;7.70;5.37;;;26.40;78.30;;;;;;5011594;28;20729;-71
2023/06/21 07:18:52;;;;;;;5.80;4.73;;;26.40;78.30;;;;;;5012504;28;20639;-71
2023/06/21 07:21:19;;;;;;;6.67;5.53;;;26.50;78.30;;;;;;5012554;28;20207;-71
2023/06/21 07:23:48;;;;;;;6.63;4.83;;;26.60;78.50;;;;;;5011074;28;20664;-71
2023/06/21 07:26:15;;;;;;;6.43;5.00;;;26.60;78.10;;;;;;5011374;28;20268;-71
2023/06/21 07:28:43;;;;;;;5.77;4.13;;;26.70;78.30;;;;;;5011102;28;20219;-71
2023/06/21 07:31:11;;;;;;;5.47;4.60;;;26.70;76.90;;;;;;5012159;28;20203;-71
2023/06/21 07:33:45;;;;;;;4.93;4.37;;;26.80;76.60;;;;;;5011875;28;20217;-71
2023/06/21 07:36:12;;;;;;;6.33;4.60;;;26.80;76.40;;;;;;5011909;28;20662;-72
2023/06/21 07:38:38;;;;;;;7.67;4.83;;;26.60;75.90;;;;;;5011678;28;20235;-71
2023/06/21 07:41:05;;;;;;;7.00;5.60;;;26.60;77.30;;;;;;5012490;28;20205;-72
2023/06/21 07:43:32;;;;;;;5.70;5.10;;;26.70;78.30;;;;;;5011605;28;20615;-71
2023/06/21 07:45:59;;;;;;;8.40;5.60;;;26.70;76.40;;;;;;5011699;28;20242;-71
2023/06/21 07:48:27;;;;;;;6.00;5.40;;;26.60;76.70;;;;;;5011604;28;20205;-71
2023/06/21 07:50:55;;;;;;;6.57;5.30;;;26.70;77.20;;;;;;5011806;28;20236;-72
2023/06/21 07:53:22;;;;;;;5.57;5.07;;;26.70;77.00;;;;;;5010237;28;20220;-70
2023/06/21 07:55:49;;;;;;;6.10;5.50;;;26.80;76.60;;;;;;5011290;28;20706;-70
2023/06/21 07:58:16;;;;;;;5.90;4.87;;;26.90;77.00;;;;;;5011202;28;20432;-70
2023/06/21 08:00:43;;;;;;;7.37;5.80;;;27.10;76.60;;;;;;5011395;28;20217;-70
2023/06/21 08:03:10;;;;;;;8.53;5.60;;;27.20;76.50;;;;;;5011556;28;20459;-71
2023/06/21 08:05:39;;;;;;;6.10;5.50;;;27.30;76.00;;;;;;5011945;28;20207;-70
2023/06/21 08:08:07;;;;;;;5.87;5.37;;;27.40;76.20;;;;;;5010954;28;20203;-71
2023/06/21 08:10:34;;;;;;;5.80;5.30;;;27.50;75.60;;;;;;5011552;28;20318;-71
2023/06/21 08:13:02;;;;;;;5.90;5.30;;;27.50;74.00;;;;;;5011149;28;20229;-72
2023/06/21 08:15:29;;;;;;;6.83;5.90;;;27.40;73.80;;;;;;5010843;28;20663;-71
2023/06/21 08:17:56;;;;;;;6.90;5.93;;;27.40;74.10;;;;;;5011543;28;20224;-72
2023/06/21 08:20:23;;;;;;;7.07;5.63;;;27.20;74.60;;;;;;5010544;28;20247;-72
2023/06/21 08:22:50;;;;;;;7.37;6.63;;;27.10;74.60;;;;;;5011258;28;20319;-72
2023/06/21 08:25:18;;;;;;;6.30;5.70;;;27.00;74.70;;;;;;5010472;28;20291;-71
2023/06/21 08:27:45;;;;;;;8.17;5.80;;;27.00;75.20;;;;;;5011053;28;20327;-72
2023/06/21 08:30:17;;;;;;;6.20;5.60;;;27.00;75.10;;;;;;5011000;28;20227;-70
2023/06/21 08:32:44;;;;;;;10.30;6.17;;;26.90;76.00;;;;;;5010827;28;20234;-72
2023/06/21 08:35:11;;;;;;;6.50;5.70;;;26.90;75.40;;;;;;5010492;28;20601;-72
2023/06/21 08:37:40;;;;;;;5.77;5.17;;;26.90;75.20;;;;;;5010004;28;20231;-70
2023/06/21 08:40:09;;;;;;;10.07;5.60;;;26.90;75.80;;;;;;5011119;28;20208;-72
2023/06/21 08:42:39;;;;;;;6.33;5.60;;;27.00;76.10;;;;;;5011204;28;20467;-72
2023/06/21 08:45:07;;;;;;;7.37;5.70;;;27.10;75.90;;;;;;5010596;28;20207;-71
2023/06/21 08:47:35;;;;;;;6.53;5.93;;;27.20;75.60;;;;;;5010801;28;20320;-71
2023/06/21 08:50:05;;;;;;;6.27;5.67;;;27.10;75.20;;;;;;5010722;28;20630;-72
2023/06/21 08:52:33;;;;;;;8.20;6.33;;;27.20;75.20;;;;;;5010883;28;20626;-71
2023/06/21 08:55:04;;;;;;;6.60;5.77;;;27.30;74.80;;;;;;5010319;28;20322;-71
2023/06/21 08:57:39;;;;;;;9.00;6.30;;;27.40;74.90;;;;;;5010667;28;20227;-71
2023/06/21 09:00:11;;;;;;;6.13;5.53;;;27.40;74.10;;;;;;5010430;28;20195;-71
2023/06/21 09:02:47;;;;;;;7.27;5.90;;;27.40;74.40;;;;;;5011045;28;20671;-71
2023/06/21 09:05:21;;;;;;;6.63;5.67;;;27.50;74.40;;;;;;5009801;28;20244;-73
2023/06/21 09:07:49;;;;;;;6.23;5.67;;;27.60;73.10;;;;;;5010220;28;20227;-72
2023/06/21 09:10:20;;;;;;;6.07;5.23;;;27.50;73.80;;;;;;5010618;28;20609;-71
2023/06/21 09:12:49;;;;;;;6.90;5.40;;;27.60;73.00;;;;;;5009912;28;20537;-71
2023/06/21 09:15:20;;;;;;;5.60;5.10;;;27.60;72.80;;;;;;5010037;28;20224;-71
2023/06/21 09:17:48;;;;;;;5.53;4.90;;;27.60;72.40;;;;;;5009422;28;20221;-71
2023/06/21 09:20:16;;;;;;;6.70;5.00;;;27.60;72.20;;;;;;5010176;28;20237;-71
2023/06/21 09:22:46;;;;;;;6.10;5.60;;;27.60;72.00;;;;;;5010224;28;20215;-72
2023/06/21 09:25:13;;;;;;;5.87;5.37;;;27.60;72.00;;;;;;5009579;28;20606;-71
2023/06/21 09:27:40;;;;;;;6.53;5.80;;;27.60;71.80;;;;;;5010265;28;20286;-71
2023/06/21 09:30:08;;;;;;;5.93;5.33;;;27.50;71.70;;;;;;5010504;28;20205;-71
2023/06/21 09:32:38;;;;;;;5.97;5.37;;;27.30;72.10;;;;;;5010109;28;20614;-71
2023/06/21 09:35:06;;;;;;;6.30;5.70;;;27.40;73.60;;;;;;5010273;28;20215;-71
2023/06/21 09:37:34;;;;;;;6.17;5.30;;;27.40;72.00;;;;;;5010023;28;20245;-71
2023/06/21 09:40:01;;;;;;;6.20;5.57;;;27.30;71.80;;;;;;5010573;28;20208;-71
2023/06/21 09:42:28;;;;;;;5.67;5.17;;;27.30;72.40;;;;;;5010642;28;20213;-71
2023/06/21 09:44:56;;;;;;;5.70;5.00;;;27.40;73.20;;;;;;5009812;28;20236;-71
2023/06/21 09:47:23;;;;;;;5.70;5.20;;;27.50;73.30;;;;;;5010007;28;20237;-71
2023/06/21 09:49:52;;;;;;;7.10;5.70;;;27.40;71.60;;;;;;5008959;28;20581;-71
2023/06/21 09:52:23;;;;;;;6.13;5.37;;;27.30;72.00;;;;;;5009684;28;20715;-72
2023/06/21 09:54:50;;;;;;;8.07;5.33;;;27.20;72.50;;;;;;5026240;28;20212;-71
2023/06/21 09:57:27;;;;;;;5.83;4.93;;;27.20;72.90;;;;;;5028923;28;20259;-71
2023/06/21 09:59:53;;;;;;;5.80;5.17;;;27.30;73.00;;;;;;5029577;28;20209;-71
2023/06/21 10:02:20;;;;;;;6.00;5.40;;;27.30;72.80;;;;;;5029393;28;20210;-71
2023/06/21 10:04:54;;;;;;;6.30;5.70;;;27.30;72.60;;;;;;5029590;28;20669;-71
2023/06/21 10:07:27;;;;;;;6.10;5.50;;;27.40;71.90;;;;;;5029842;28;20207;-72
2023/06/21 10:09:54;;;;;;;5.63;5.03;;;27.30;71.70;;;;;;5029639;28;20234;-71
2023/06/21 10:12:21;;;;;;;5.60;5.10;;;27.30;71.60;;;;;;5029297;28;20582;-71
2023/06/21 10:14:48;;;;;;;5.77;5.27;;;27.40;71.30;;;;;;5029315;28;20245;-71
2023/06/21 10:17:16;;;;;;;6.20;5.30;;;27.50;71.50;;;;;;5029042;28;20242;-72
2023/06/21 10:19:45;;;;;;;7.33;5.00;;;27.60;71.20;;;;;;5029895;28;20579;-71
2023/06/21 10:22:20;;;;;;;5.67;5.03;;;27.60;70.40;;;;;;5029872;28;20227;-71
2023/06/21 10:24:49;;;;;;;6.00;5.30;;;27.60;70.40;;;;;;5028928;28;20205;-71
2023/06/21 10:27:17;;;;;;;6.07;5.37;;;27.50;70.50;;;;;;5029663;28;20448;-71
2023/06/21 10:29:44;;;;;;;7.70;6.33;;;27.50;70.90;;;;;;5030283;28;20235;-71
2023/06/21 10:32:15;;;;;;;6.57;5.80;;;27.50;70.70;;;;;;5019720;28;20223;-71
2023/06/21 10:34:57;;;;;;;6.80;6.10;;;27.50;71.20;;;;;;5012689;28;20614;-72
2023/06/21 10:37:39;;;;;;;6.50;5.90;;;27.60;71.10;;;;;;5012359;28;20738;-72
2023/06/21 10:40:08;;;;;;;9.30;6.40;;;27.60;71.60;;;;;;5013334;28;20587;-72
2023/06/21 10:42:37;;;;;;;9.13;6.63;;;27.70;71.50;;;;;;5012893;28;20209;-72
2023/06/21 10:45:05;;;;;;;8.17;6.67;;;27.70;71.80;;;;;;5012407;28;20282;-71
2023/06/21 10:47:36;;;;;;;10.03;6.47;;;27.70;71.60;;;;;;5012796;28;20228;-71
2023/06/21 10:50:03;;;;;;;7.77;7.07;;;27.80;71.60;;;;;;5013200;28;20236;-71
2023/06/21 10:52:32;;;;;;;6.60;6.00;;;28.00;71.10;;;;;;5012930;28;20600;-71
2023/06/21 10:54:59;;;;;;;7.50;6.77;;;28.10;70.80;;;;;;5012156;28;20736;-71
2023/06/21 10:57:28;;;;;;;8.27;6.97;;;28.20;70.50;;;;;;5012801;28;20218;-71
2023/06/21 10:59:56;;;;;;;7.50;6.80;;;28.20;70.10;;;;;;5012566;28;20320;-71
2023/06/21 11:02:23;;;;;;;8.10;7.30;;;28.30;70.30;;;;;;5013119;28;20204;-71
2023/06/21 11:05:12;;;;;;;8.57;7.63;;;28.40;70.00;;;;;;5012268;28;20678;-71
2023/06/21 11:07:52;;;;;;;8.47;7.37;;;28.30;70.20;;;;;;5012769;28;20216;-71
2023/06/21 11:10:22;;;;;;;8.27;7.47;;;28.30;69.40;;;;;;5012574;28;20197;-71
2023/06/21 11:12:54;;;;;;;7.87;7.07;;;28.30;69.60;;;;;;5012274;28;20237;-72
2023/06/21 11:15:23;;;;;;;7.73;6.93;;;28.40;69.30;;;;;;5012040;28;20260;-72
2023/06/21 11:17:57;;;;;;;7.30;6.63;;;28.50;69.60;;;;;;5011950;28;20221;-71
2023/06/21 11:20:25;;;;;;;9.17;7.20;;;28.70;69.40;;;;;;5011893;28;20206;-71
2023/06/21 11:22:57;;;;;;;7.90;7.10;;;28.90;69.40;;;;;;5012450;28;20222;-71
2023/06/21 11:25:26;;;;;;;7.77;7.07;;;29.10;68.60;;;;;;5011860;28;20234;-71
2023/06/21 11:28:29;;;;;;;8.03;7.30;;;29.20;68.10;;;;;;5012641;28;20206;-71
2023/06/21 11:31:08;;;;;;;8.60;7.10;;;29.20;67.40;;;;;;5012147;28;20203;-72
2023/06/21 11:33:55;;;;;;;7.10;6.50;;;29.10;65.10;;;;;;5012058;28;20563;-71
2023/06/21 11:36:29;;;;;;;7.17;6.20;;;29.10;66.20;;;;;;5012013;28;20194;-71
2023/06/21 11:39:24;;;;;;;7.60;6.57;;;29.20;66.80;;;;;;5012024;28;20627;-71
2023/06/21 11:41:59;;;;;;;6.60;5.87;;;29.40;64.50;;;;;;5011705;28;20214;-71
2023/06/21 11:44:28;;;;;;;8.30;6.40;;;29.40;64.70;;;;;;5011455;28;20234;-71
2023/06/21 11:47:15;;;;;;;6.83;5.80;;;29.50;64.40;;;;;;5011875;28;20225;-71
2023/06/21 11:49:59;;;;;;;5.70;5.13;;;29.50;64.50;;;;;;5011386;28;20238;-70
2023/06/21 11:52:35;;;;;;;6.70;5.40;;;29.70;63.70;;;;;;5011612;28;20293;-71
2023/06/21 11:55:18;;;;;;;4.87;4.40;;;29.80;61.70;;;;;;5011038;28;20201;-72
2023/06/21 11:57:46;;;;;;;5.07;4.67;;;29.90;61.70;;;;;;5010880;28;20254;-71
2023/06/21 12:00:15;;;;;;;5.23;4.73;;;29.90;62.10;;;;;;5011472;28;20284;-71
2023/06/21 12:02:42;;;;;;;5.07;4.57;;;30.10;62.20;;;;;;5011992;28;20592;-71
2023/06/21 12:05:09;;;;;;;5.10;4.47;;;30.20;61.60;;;;;;5011304;28;20306;-72
2023/06/21 12:07:39;;;;;;;5.43;4.93;;;30.40;62.30;;;;;;5011612;28;20249;-72
2023/06/21 12:10:07;;;;;;;5.87;4.47;;;30.60;61.10;;;;;;4994124;28;20223;-71
2023/06/21 12:12:36;;;;;;;5.63;5.00;;;30.60;60.10;;;;;;5011451;28;20581;-71
2023/06/21 12:15:09;;;;;;;5.67;5.17;;;30.70;59.40;;;;;;5011230;28;20748;-72
2023/06/21 12:17:36;;;;;;;6.40;5.80;;;30.80;60.20;;;;;;5011125;28;20375;-71
2023/06/21 12:20:09;;;;;;;6.83;5.17;;;30.80;59.70;;;;;;5011486;28;20231;-71
2023/06/21 12:22:41;;;;;;;6.60;5.47;;;30.90;62.20;;;;;;4993726;28;20262;-70
2023/06/21 12:25:09;;;;;;;5.30;4.33;;;31.10;60.40;;;;;;5010833;28;20191;-72
2023/06/21 12:27:37;;;;;;;4.37;3.97;;;31.30;58.00;;;;;;5010910;28;20211;-70
2023/06/21 12:30:04;;;;;;;5.10;3.93;;;31.20;57.40;;;;;;5010864;28;20245;-70
2023/06/21 12:32:35;;;;;;;3.27;3.00;;;31.20;56.40;;;;;;5011097;28;20209;-71
2023/06/21 12:35:03;;;;;;;4.87;4.17;;;31.10;55.40;;;;;;5010691;28;20231;-71
2023/06/21 12:37:31;;;;;;;4.80;4.30;;;31.10;55.30;;;;;;5009505;28;20214;-71
2023/06/21 12:40:01;;;;;;;4.33;4.00;;;31.00;55.90;;;;;;5010991;28;20226;-71
2023/06/21 12:42:34;;;;;;;5.10;3.90;;;31.10;56.50;;;;;;5010884;28;20382;-71
2023/06/21 12:45:04;;;;;;;5.13;4.13;;;31.10;55.60;;;;;;5011217;28;20439;-71
2023/06/21 12:47:32;;;;;;;4.23;3.37;;;31.30;55.60;;;;;;5009997;28;20253;-71
2023/06/21 12:50:00;;;;;;;4.93;3.57;;;31.30;55.20;;;;;;5011152;28;20214;-70
2023/06/21 12:52:28;;;;;;;4.00;3.60;;;31.30;54.00;;;;;;5010434;28;20208;-72
2023/06/21 12:54:56;;;;;;;4.93;4.43;;;31.30;54.00;;;;;;5010246;28;20236;-71